Centertown, Kentucky
Current Conditions -  °F | °C
As of 5:15 PM on Thursday 27 Nov 2014 (Local Time) from K2I0 Reporting Station
Broken Clouds Broken Clouds  
Wind Chill: 27°   Ceiling: 4200
Heat Index: 32°   Visibility: 10mi
Dew Point: 25°   Wind: 5mph
Humidity: 75%   Direction: 320°NW
Pressure: 30.47"   Gusts: NA
Location:  37.42°N, 87°W
Report Text: K2I0 272315Z AUTO 32004KT 10SM BKN042 00/M04 A3047 RMK AO2 T10011040
Loading
Personal Weather Stations






























Interactive Weather Map New forecast layout! Learn more

10-Day Weather Forecast

Advertisements
Track Severe Weather on mobile